Time;durP1;ratioP1;P1;durP2;ratioP2;P2;SDS_P1;SDS_P2;PMS_P1;PMS_P2;Temp;Humidity;BMP_temperature;BMP_pressure;BME280_temperature;BME280_humidity;BME280_pressure;Samples;Min_cycle;Max_cycle;Signal;HPM_P1;HPM_P2
2022/04/29 00:00:19;;;;;;;6.47;4.97;;;7.30;99.90;;;;;;5112604;28;20232;-63
2022/04/29 00:02:46;;;;;;;9.63;5.00;;;7.40;99.90;;;;;;5113333;28;20958;-66
2022/04/29 00:05:14;;;;;;;6.70;4.40;;;7.30;99.90;;;;;;5113397;28;20207;-65
2022/04/29 00:07:40;;;;;;;15.90;4.83;;;7.30;99.90;;;;;;5112914;28;20448;-63
2022/04/29 00:10:14;;;;;;;10.77;5.60;;;7.20;99.90;;;;;;5112553;28;20399;-68
2022/04/29 00:12:46;;;;;;;10.03;6.30;;;7.20;99.90;;;;;;5113458;28;20958;-68
2022/04/29 00:15:14;;;;;;;6.13;4.90;;;7.20;99.90;;;;;;5112480;28;20760;-64
2022/04/29 00:17:40;;;;;;;8.60;5.37;;;7.20;99.90;;;;;;5113268;28;20403;-68
2022/04/29 00:20:08;;;;;;;6.70;4.20;;;7.20;99.90;;;;;;5112036;28;20419;-67
2022/04/29 00:22:34;;;;;;;8.40;4.93;;;7.10;99.90;;;;;;5113269;28;20547;-69
2022/04/29 00:25:00;;;;;;;5.13;4.00;;;7.10;99.90;;;;;;5113155;28;20402;-69
2022/04/29 00:27:26;;;;;;;9.13;6.03;;;7.10;99.90;;;;;;5113138;28;20399;-66
2022/04/29 00:29:51;;;;;;;8.20;5.93;;;7.10;99.90;;;;;;5112297;28;20911;-64
2022/04/29 00:32:17;;;;;;;10.07;5.40;;;7.10;99.90;;;;;;5112846;28;20279;-68
2022/04/29 00:34:43;;;;;;;10.77;4.77;;;7.00;99.90;;;;;;5112710;28;20675;-67
2022/04/29 00:37:10;;;;;;;5.10;4.70;;;7.00;99.90;;;;;;5117040;28;20728;-67
2022/04/29 00:39:36;;;;;;;13.40;5.13;;;6.90;99.90;;;;;;5115905;28;20630;-67
2022/04/29 00:42:13;;;;;;;6.40;4.70;;;6.80;99.90;;;;;;5116724;28;20425;-66
2022/04/29 00:44:42;;;;;;;7.07;4.90;;;6.80;99.90;;;;;;5116603;28;20775;-68
2022/04/29 00:47:10;;;;;;;6.47;4.63;;;6.80;99.90;;;;;;5116808;28;20410;-63
2022/04/29 00:49:36;;;;;;;5.43;4.93;;;6.80;99.90;;;;;;5115732;28;20395;-63
2022/04/29 00:52:10;;;;;;;6.10;5.20;;;6.80;99.90;;;;;;5116821;28;20418;-64
2022/04/29 00:54:37;;;;;;;5.30;4.80;;;6.70;99.90;;;;;;5115943;28;20544;-64
2022/04/29 00:57:07;;;;;;;8.80;5.20;;;6.60;99.90;;;;;;5116582;28;20453;-62
2022/04/29 00:59:46;;;;;;;7.97;5.10;;;6.50;99.90;;;;;;5114955;28;20910;-64
2022/04/29 01:02:14;;;;;;;13.53;5.10;;;6.50;99.90;;;;;;5116334;28;20454;-63
2022/04/29 01:04:52;;;;;;;10.40;4.77;;;6.50;99.90;;;;;;5116391;28;20444;-63
2022/04/29 01:07:17;;;;;;;6.47;4.20;;;6.60;99.90;;;;;;5116518;28;20899;-67
2022/04/29 01:09:43;;;;;;;9.20;5.27;;;6.60;99.90;;;;;;5114831;28;20414;-64
2022/04/29 01:12:09;;;;;;;7.00;4.50;;;6.50;99.90;;;;;;5115577;28;20185;-64
2022/04/29 01:14:35;;;;;;;5.40;4.90;;;6.50;99.90;;;;;;5116348;28;20161;-63
2022/04/29 01:17:00;;;;;;;8.13;4.80;;;6.60;99.90;;;;;;5116309;28;20398;-63
2022/04/29 01:19:26;;;;;;;5.23;4.73;;;6.60;99.90;;;;;;5115347;28;20234;-64
2022/04/29 01:21:52;;;;;;;7.03;4.87;;;6.60;99.90;;;;;;5116070;28;20196;-64
2022/04/29 01:24:18;;;;;;;12.43;6.10;;;6.60;99.90;;;;;;5115618;28;20248;-68
2022/04/29 01:26:43;;;;;;;8.17;5.13;;;6.60;99.90;;;;;;5116056;28;20478;-68
2022/04/29 01:29:10;;;;;;;6.17;4.80;;;6.60;99.90;;;;;;5114783;28;20410;-63
2022/04/29 01:31:38;;;;;;;6.67;4.63;;;6.60;99.90;;;;;;5115251;28;20165;-65
2022/04/29 01:34:03;;;;;;;6.50;4.70;;;6.50;99.90;;;;;;5115933;28;20406;-68
2022/04/29 01:36:29;;;;;;;5.97;4.27;;;6.50;99.90;;;;;;5115964;28;20949;-63
2022/04/29 01:38:55;;;;;;;4.00;3.70;;;6.40;99.90;;;;;;5114491;28;20168;-63
2022/04/29 01:41:20;;;;;;;6.60;4.87;;;6.40;99.90;;;;;;5115527;28;20216;-64
2022/04/29 01:43:46;;;;;;;8.00;5.57;;;6.50;99.90;;;;;;5115496;28;20193;-64
2022/04/29 01:46:12;;;;;;;7.57;5.07;;;6.40;99.90;;;;;;5115450;28;20718;-63
2022/04/29 01:48:38;;;;;;;5.33;4.53;;;6.40;99.90;;;;;;5114367;28;20595;-68
2022/04/29 01:51:06;;;;;;;5.27;4.70;;;6.40;99.90;;;;;;5115294;28;20629;-68
2022/04/29 01:53:32;;;;;;;11.53;5.47;;;6.40;99.90;;;;;;5115024;28;20434;-64
2022/04/29 01:55:58;;;;;;;5.30;4.77;;;6.40;99.90;;;;;;5115439;28;20452;-68
2022/04/29 01:58:24;;;;;;;11.60;4.80;;;6.40;99.90;;;;;;5115157;28;20427;-64
2022/04/29 02:00:49;;;;;;;5.10;4.10;;;6.30;99.90;;;;;;5114636;28;20181;-67
2022/04/29 02:03:15;;;;;;;5.43;5.00;;;6.40;99.90;;;;;;5115310;28;20204;-63
2022/04/29 02:05:40;;;;;;;7.43;4.77;;;6.30;99.90;;;;;;5115007;28;20641;-65
2022/04/29 02:08:07;;;;;;;7.87;4.40;;;6.30;99.90;;;;;;5114576;28;20200;-68
2022/04/29 02:10:33;;;;;;;4.97;4.50;;;6.30;99.90;;;;;;5113802;28;20168;-67
2022/04/29 02:12:58;;;;;;;9.37;4.87;;;6.40;99.90;;;;;;5115122;28;20414;-67
2022/04/29 02:15:24;;;;;;;4.87;4.53;;;6.40;99.90;;;;;;5115204;28;20161;-64
2022/04/29 02:17:50;;;;;;;4.80;4.33;;;6.40;99.90;;;;;;5115078;28;20164;-67
2022/04/29 02:20:15;;;;;;;9.77;5.30;;;6.40;99.90;;;;;;5095465;28;20525;-66
2022/04/29 02:22:41;;;;;;;8.20;5.30;;;6.40;99.90;;;;;;5114655;28;20204;-65
2022/04/29 02:25:07;;;;;;;5.40;4.30;;;6.40;99.90;;;;;;5114923;28;20203;-64
2022/04/29 02:27:33;;;;;;;6.43;4.43;;;6.40;99.90;;;;;;5095881;28;20567;-64
2022/04/29 02:29:59;;;;;;;5.67;4.60;;;6.40;99.90;;;;;;5113728;28;20404;-65
2022/04/29 02:32:25;;;;;;;4.53;4.13;;;6.40;99.90;;;;;;5114641;28;20418;-65
2022/04/29 02:34:50;;;;;;;7.03;4.37;;;6.30;99.90;;;;;;5114427;28;20200;-61
2022/04/29 02:37:16;;;;;;;6.43;4.60;;;6.30;99.90;;;;;;5114950;28;20169;-61
2022/04/29 02:39:42;;;;;;;6.37;4.60;;;6.40;99.90;;;;;;5113769;28;20995;-64
2022/04/29 02:42:08;;;;;;;6.30;5.20;;;6.20;99.90;;;;;;5114472;28;20199;-64
2022/04/29 02:44:33;;;;;;;6.00;5.10;;;6.30;99.90;;;;;;5113947;28;20637;-63
2022/04/29 02:47:08;;;;;;;5.87;5.47;;;6.30;99.90;;;;;;5114247;28;20420;-66
2022/04/29 02:49:44;;;;;;;4.83;4.40;;;6.20;99.90;;;;;;5113193;28;20171;-61
2022/04/29 02:52:12;;;;;;;7.13;5.10;;;6.30;99.90;;;;;;5114006;28;20517;-67
2022/04/29 02:54:39;;;;;;;6.03;4.83;;;6.40;99.90;;;;;;5114476;28;20438;-66
2022/04/29 02:57:05;;;;;;;5.20;4.37;;;6.30;99.90;;;;;;5114113;28;20423;-61
2022/04/29 02:59:31;;;;;;;12.77;5.40;;;6.30;99.90;;;;;;5095085;28;20801;-65
2022/04/29 03:01:56;;;;;;;6.30;4.77;;;6.30;99.90;;;;;;5113070;28;20418;-63
2022/04/29 03:04:22;;;;;;;5.17;4.67;;;6.30;99.90;;;;;;5114096;28;20688;-62
2022/04/29 03:06:48;;;;;;;10.43;6.73;;;6.20;99.90;;;;;;5114164;28;20161;-65
2022/04/29 03:09:14;;;;;;;8.30;4.63;;;6.20;99.90;;;;;;5113360;28;20161;-66
2022/04/29 03:11:40;;;;;;;5.00;4.60;;;6.20;99.90;;;;;;5114029;28;20717;-61
2022/04/29 03:14:06;;;;;;;8.70;5.20;;;6.20;99.90;;;;;;5114203;28;20402;-65
2022/04/29 03:16:32;;;;;;;6.10;3.80;;;6.10;99.90;;;;;;5114067;28;20399;-67
2022/04/29 03:18:58;;;;;;;5.60;5.10;;;6.10;99.90;;;;;;5111745;28;20205;-62
2022/04/29 03:21:24;;;;;;;4.83;4.40;;;6.10;99.90;;;;;;5113876;28;20657;-64
2022/04/29 03:23:50;;;;;;;8.67;5.47;;;6.00;99.90;;;;;;5113869;28;20447;-62
2022/04/29 03:26:16;;;;;;;6.40;4.80;;;6.00;99.90;;;;;;5113844;28;20399;-61
2022/04/29 03:28:41;;;;;;;5.33;4.83;;;6.00;99.90;;;;;;5112856;28;20165;-66
2022/04/29 03:31:07;;;;;;;8.37;5.17;;;6.00;99.90;;;;;;5095542;28;20176;-67
2022/04/29 03:33:33;;;;;;;5.10;4.63;;;6.00;99.90;;;;;;5113531;28;20257;-66
2022/04/29 03:35:59;;;;;;;6.87;5.73;;;6.00;99.90;;;;;;5113697;28;20899;-65
2022/04/29 03:38:25;;;;;;;5.90;5.40;;;6.00;99.90;;;;;;5112566;28;20641;-62
2022/04/29 03:40:52;;;;;;;6.50;5.37;;;6.00;99.90;;;;;;5112755;28;20172;-61
2022/04/29 03:43:17;;;;;;;7.63;5.50;;;6.00;99.90;;;;;;5113532;28;20458;-62
2022/04/29 03:45:43;;;;;;;9.13;6.10;;;5.90;99.90;;;;;;5113505;28;20409;-65
2022/04/29 03:48:10;;;;;;;7.40;4.97;;;5.90;99.90;;;;;;5113104;28;20255;-62
2022/04/29 03:50:36;;;;;;;6.20;5.00;;;5.90;99.90;;;;;;5112087;28;20391;-66
2022/04/29 03:53:03;;;;;;;6.87;6.23;;;5.90;99.90;;;;;;5112314;28;20538;-65
2022/04/29 03:55:32;;;;;;;8.10;5.00;;;5.90;99.90;;;;;;5113116;28;20405;-66
2022/04/29 03:57:58;;;;;;;8.33;4.40;;;5.80;99.90;;;;;;5112539;28;20433;-65
2022/04/29 04:00:26;;;;;;;10.30;5.70;;;5.80;99.90;;;;;;5112409;28;20402;-61
2022/04/29 04:02:52;;;;;;;5.50;5.00;;;5.90;99.90;;;;;;5113072;28;20545;-62
2022/04/29 04:05:18;;;;;;;8.07;4.63;;;5.90;99.90;;;;;;5113394;28;20441;-66
2022/04/29 04:07:45;;;;;;;7.90;5.27;;;5.90;99.90;;;;;;5113108;28;20642;-62
2022/04/29 04:10:12;;;;;;;8.50;5.30;;;5.90;99.90;;;;;;5113735;28;20402;-62
2022/04/29 04:12:48;;;;;;;5.87;5.27;;;5.80;99.90;;;;;;5099192;28;20434;-66
2022/04/29 04:15:16;;;;;;;5.43;4.57;;;5.90;99.90;;;;;;5098410;28;20775;-62
2022/04/29 04:17:43;;;;;;;5.30;4.57;;;5.90;99.90;;;;;;5117387;28;20407;-61
2022/04/29 04:20:10;;;;;;;7.10;6.40;;;5.90;99.90;;;;;;5116127;28;20410;-62
2022/04/29 04:22:36;;;;;;;8.53;4.73;;;6.00;99.90;;;;;;5117254;28;20449;-65
2022/04/29 04:25:12;;;;;;;7.03;4.57;;;6.00;99.90;;;;;;5117255;28;20391;-65
2022/04/29 04:27:38;;;;;;;4.90;4.50;;;6.10;99.90;;;;;;5117218;28;20402;-65
2022/04/29 04:30:05;;;;;;;5.30;4.90;;;6.10;99.90;;;;;;5116242;28;20410;-65
2022/04/29 04:32:37;;;;;;;11.23;5.43;;;6.10;99.90;;;;;;5117179;28;20972;-65
2022/04/29 04:35:05;;;;;;;9.50;5.33;;;6.20;99.90;;;;;;5115934;28;20410;-65
2022/04/29 04:37:32;;;;;;;8.87;5.03;;;6.30;99.90;;;;;;5117126;28;20452;-65
2022/04/29 04:39:58;;;;;;;7.03;4.40;;;6.20;99.90;;;;;;5116329;28;20459;-61
2022/04/29 04:42:24;;;;;;;7.83;4.37;;;6.30;99.90;;;;;;5116791;28;20442;-66
2022/04/29 04:44:51;;;;;;;8.43;5.27;;;6.30;99.90;;;;;;5116872;28;20436;-65
2022/04/29 04:47:17;;;;;;;6.23;5.03;;;6.40;99.90;;;;;;5116304;28;21125;-65
2022/04/29 04:49:43;;;;;;;8.43;5.50;;;6.40;99.90;;;;;;5115761;28;20402;-63
2022/04/29 04:52:09;;;;;;;4.47;4.03;;;6.40;99.90;;;;;;5115698;28;20419;-68
2022/04/29 04:54:36;;;;;;;16.10;5.40;;;6.40;99.90;;;;;;5098559;28;20406;-67
2022/04/29 04:57:04;;;;;;;9.30;4.80;;;6.40;99.90;;;;;;5116459;28;20426;-67
2022/04/29 04:59:30;;;;;;;4.87;4.40;;;6.40;99.90;;;;;;5115588;28;20905;-65
2022/04/29 05:01:56;;;;;;;8.97;5.43;;;6.40;99.90;;;;;;5116196;28;20442;-66
2022/04/29 05:04:22;;;;;;;5.43;4.20;;;6.40;99.90;;;;;;5116568;28;20210;-64
2022/04/29 05:06:47;;;;;;;9.20;5.00;;;6.50;99.90;;;;;;5098256;28;20620;-68
2022/04/29 05:09:13;;;;;;;12.33;5.47;;;6.60;99.90;;;;;;5114696;28;20630;-65
2022/04/29 05:11:39;;;;;;;5.47;4.93;;;6.70;99.90;;;;;;5116228;28;20162;-65
2022/04/29 05:14:04;;;;;;;9.60;4.87;;;6.80;99.90;;;;;;5116389;28;20395;-67
2022/04/29 05:16:30;;;;;;;7.30;4.43;;;6.90;99.90;;;;;;5116103;28;20173;-63
2022/04/29 05:18:56;;;;;;;7.90;4.83;;;7.00;99.90;;;;;;5115364;28;20659;-68
2022/04/29 05:21:22;;;;;;;5.40;5.00;;;7.10;99.90;;;;;;5115641;28;20666;-67
2022/04/29 05:23:47;;;;;;;10.60;5.57;;;7.10;99.90;;;;;;5115875;28;20334;-68
2022/04/29 05:26:13;;;;;;;7.93;5.33;;;7.20;99.90;;;;;;5115670;28;20581;-64
2022/04/29 05:28:38;;;;;;;5.07;4.57;;;7.20;99.90;;;;;;5114287;28;20204;-64
2022/04/29 05:31:05;;;;;;;8.27;5.10;;;7.20;99.90;;;;;;5115907;28;20173;-68
2022/04/29 05:33:37;;;;;;;8.00;4.20;;;7.30;99.90;;;;;;5115858;28;20177;-64
2022/04/29 05:36:04;;;;;;;7.10;4.63;;;7.30;99.90;;;;;;5115962;28;20447;-66
2022/04/29 05:42:14;;;;;;;5.70;4.50;;;7.30;99.90;;;;;;5115244;28;20408;-71
2022/04/29 05:44:00;;;;;;;5.20;4.50;;;7.40;99.90;;;;;;5115278;28;20819;-66
2022/04/29 05:46:26;;;;;;;6.27;5.03;;;7.50;99.90;;;;;;5115086;28;20408;-63
2022/04/29 05:48:52;;;;;;;8.47;4.80;;;7.60;99.90;;;;;;5114826;28;20736;-64
2022/04/29 05:51:17;;;;;;;5.10;3.23;;;7.60;99.90;;;;;;5111362;28;20509;-63
2022/04/29 05:53:43;;;;;;;4.60;4.20;;;7.70;99.90;;;;;;5114775;28;20218;-64
2022/04/29 05:56:08;;;;;;;4.07;3.70;;;7.70;99.90;;;;;;5115387;28;20537;-67
2022/04/29 05:58:34;;;;;;;5.70;4.47;;;7.70;99.90;;;;;;5114662;28;20188;-68
2022/04/29 06:01:00;;;;;;;5.00;4.20;;;7.80;99.90;;;;;;5115448;28;20181;-67
2022/04/29 06:03:26;;;;;;;8.13;4.50;;;7.80;99.90;;;;;;5115200;28;20213;-68
2022/04/29 06:05:51;;;;;;;3.77;3.47;;;7.90;99.90;;;;;;5114531;28;20522;-63
2022/04/29 06:08:17;;;;;;;8.67;4.30;;;7.90;99.90;;;;;;5097313;28;20501;-68
2022/04/29 06:10:42;;;;;;;3.53;3.20;;;8.00;99.90;;;;;;5114184;28;20190;-66
2022/04/29 06:13:11;;;;;;;3.87;3.57;;;8.10;99.90;;;;;;5115165;28;20194;-68
2022/04/29 06:15:36;;;;;;;5.63;4.07;;;8.10;99.90;;;;;;5115185;28;20179;-68
2022/04/29 06:18:03;;;;;;;9.60;4.30;;;8.20;99.90;;;;;;5115078;28;20413;-66
2022/04/29 06:20:29;;;;;;;11.27;3.60;;;8.30;99.90;;;;;;5114222;28;20177;-68
2022/04/29 06:22:55;;;;;;;6.37;3.70;;;8.30;99.90;;;;;;5096190;28;20457;-69
2022/04/29 06:25:22;;;;;;;4.17;3.77;;;8.30;99.90;;;;;;5114090;28;20945;-68
2022/04/29 06:27:47;;;;;;;6.70;3.43;;;8.40;99.90;;;;;;5115077;28;20479;-68
2022/04/29 06:30:13;;;;;;;4.20;3.80;;;8.40;99.90;;;;;;5113930;28;20842;-64
2022/04/29 06:32:39;;;;;;;4.77;3.73;;;8.50;99.90;;;;;;5114005;28;20250;-63
2022/04/29 06:35:06;;;;;;;6.77;3.70;;;8.60;99.90;;;;;;5089571;28;20527;-68
2022/04/29 06:37:32;;;;;;;4.37;3.60;;;8.70;99.90;;;;;;5114733;28;20203;-64
2022/04/29 06:39:58;;;;;;;4.20;3.40;;;8.90;99.90;;;;;;5113878;28;20402;-64
2022/04/29 06:42:24;;;;;;;3.77;3.57;;;8.90;99.90;;;;;;5113651;28;20493;-64
2022/04/29 06:44:49;;;;;;;3.40;3.20;;;9.00;99.90;;;;;;5114620;28;20168;-64
2022/04/29 06:47:16;;;;;;;5.50;3.50;;;9.10;99.90;;;;;;5114687;28;20179;-68
2022/04/29 06:49:43;;;;;;;4.23;3.83;;;9.20;99.90;;;;;;5113216;28;20200;-64
2022/04/29 06:52:08;;;;;;;5.83;3.57;;;9.30;99.90;;;;;;5114321;28;20493;-63
2022/04/29 06:54:34;;;;;;;3.63;2.90;;;9.40;99.90;;;;;;5114506;28;20870;-69
2022/04/29 06:57:00;;;;;;;3.20;3.00;;;9.40;99.90;;;;;;5114258;28;20438;-64
2022/04/29 06:59:26;;;;;;;4.30;3.60;;;9.30;99.90;;;;;;5112733;28;20434;-65
2022/04/29 07:01:52;;;;;;;6.27;3.90;;;9.20;99.90;;;;;;5114375;28;20177;-68
2022/04/29 07:04:18;;;;;;;7.20;4.63;;;9.20;99.90;;;;;;5113755;28;20462;-68
2022/04/29 07:06:43;;;;;;;8.40;3.17;;;9.30;99.90;;;;;;5114202;28;20246;-65
2022/04/29 07:09:09;;;;;;;4.90;3.40;;;9.30;99.90;;;;;;5095388;28;20546;-68
2022/04/29 07:11:34;;;;;;;7.93;3.60;;;9.20;99.90;;;;;;5114050;28;20226;-68
2022/04/29 07:14:01;;;;;;;5.07;3.40;;;9.20;99.90;;;;;;5113900;28;20260;-64
2022/04/29 07:16:26;;;;;;;15.40;3.93;;;9.20;99.90;;;;;;5113222;28;20175;-69
2022/04/29 07:18:52;;;;;;;6.03;3.97;;;9.20;99.90;;;;;;5094678;28;20421;-68
2022/04/29 07:21:18;;;;;;;6.73;3.83;;;9.20;99.90;;;;;;5114073;28;20648;-63
2022/04/29 07:23:43;;;;;;;6.40;3.73;;;9.20;99.90;;;;;;5095548;28;20203;-64
2022/04/29 07:26:09;;;;;;;3.87;3.57;;;9.10;99.90;;;;;;5113961;28;20164;-68
2022/04/29 07:28:35;;;;;;;7.13;4.70;;;9.10;99.90;;;;;;5112957;28;20553;-69
2022/04/29 07:31:01;;;;;;;10.07;4.13;;;9.30;99.90;;;;;;5113456;28;20196;-64
2022/04/29 07:33:27;;;;;;;10.53;4.53;;;9.30;99.90;;;;;;5113659;28;20585;-67
2022/04/29 07:44:06;;;;;;;6.67;3.53;;;9.50;99.90;;;;;;5113397;28;20448;-64
2022/04/29 07:46:32;;;;;;;10.30;3.17;;;9.60;99.90;;;;;;5113309;28;20393;-64
2022/04/29 07:48:58;;;;;;;6.90;3.00;;;9.50;99.90;;;;;;5112634;28;20410;-68
2022/04/29 07:51:24;;;;;;;4.30;3.27;;;9.50;99.90;;;;;;5113556;28;20408;-66
2022/04/29 07:53:49;;;;;;;4.93;2.80;;;9.60;99.90;;;;;;5112615;28;20249;-68
2022/04/29 07:56:15;;;;;;;3.20;2.90;;;9.60;99.90;;;;;;5095473;28;20278;-63
2022/04/29 07:58:41;;;;;;;9.93;3.37;;;9.60;99.90;;;;;;5112477;28;20187;-68
2022/04/29 08:01:09;;;;;;;4.60;3.20;;;9.80;99.90;;;;;;5094816;28;20952;-68
2022/04/29 08:03:39;;;;;;;8.33;3.03;;;9.80;99.90;;;;;;5113240;28;20196;-64
2022/04/29 08:06:06;;;;;;;9.33;2.67;;;9.90;99.90;;;;;;5113371;28;20398;-64
2022/04/29 08:08:33;;;;;;;4.70;2.67;;;10.00;99.90;;;;;;5093716;28;20934;-66
2022/04/29 08:10:59;;;;;;;2.83;2.30;;;10.20;99.90;;;;;;5093231;28;20863;-67
2022/04/29 08:13:24;;;;;;;3.30;2.80;;;10.30;99.90;;;;;;5089527;28;20434;-68
2022/04/29 08:15:50;;;;;;;4.13;2.60;;;10.40;99.90;;;;;;5113944;28;20621;-64
2022/04/29 08:18:16;;;;;;;2.57;2.37;;;10.60;99.90;;;;;;5103581;28;20177;-64
2022/04/29 08:20:43;;;;;;;8.23;3.20;;;10.60;99.90;;;;;;5092505;28;20443;-68
2022/04/29 08:23:09;;;;;;;9.50;2.57;;;10.70;99.90;;;;;;5098758;28;20489;-68
2022/04/29 08:25:35;;;;;;;5.13;2.37;;;10.70;99.90;;;;;;5113907;28;20442;-68
2022/04/29 08:28:03;;;;;;;2.90;2.70;;;10.90;99.90;;;;;;5095692;28;20377;-64
2022/04/29 08:30:30;;;;;;;9.60;3.27;;;10.90;99.90;;;;;;5112815;28;20898;-63
2022/04/29 08:32:57;;;;;;;2.63;2.33;;;11.10;99.90;;;;;;5112997;28;20442;-64
2022/04/29 08:35:22;;;;;;;4.27;2.77;;;11.20;99.90;;;;;;5113442;28;20450;-68
2022/04/29 08:37:49;;;;;;;6.33;2.97;;;11.20;92.40;;;;;;5104210;28;20431;-64
2022/04/29 08:40:16;;;;;;;13.50;3.33;;;11.40;97.30;;;;;;5092392;28;20166;-68
2022/04/29 08:42:42;;;;;;;11.93;3.30;;;11.50;93.40;;;;;;5093147;28;20450;-68
2022/04/29 08:45:13;;;;;;;5.87;2.90;;;11.60;97.50;;;;;;5094099;28;20379;-68
2022/04/29 08:47:44;;;;;;;3.43;3.23;;;11.80;92.70;;;;;;5093273;28;20708;-65
2022/04/29 08:50:12;;;;;;;3.10;2.00;;;11.80;92.70;;;;;;5091794;28;20703;-68
2022/04/29 08:52:39;;;;;;;4.23;2.57;;;11.90;92.70;;;;;;5108378;28;20546;-63
2022/04/29 08:58:51;;;;;;;4.20;3.30;;;12.40;92.90;;;;;;5116993;28;20400;-64
2022/04/29 09:00:46;;;;;;;3.33;3.00;;;12.70;92.10;;;;;;5093953;28;20409;-68
2022/04/29 09:03:22;;;;;;;4.70;3.20;;;12.70;90.30;;;;;;5098462;28;20493;-64
2022/04/29 09:05:49;;;;;;;6.17;2.37;;;12.70;84.40;;;;;;5107736;28;20656;-68
2022/04/29 09:08:22;;;;;;;2.80;2.50;;;12.70;84.90;;;;;;5096152;28;20374;-64
2022/04/29 09:10:54;;;;;;;3.17;2.97;;;12.50;70.60;;;;;;5095739;28;20384;-63
2022/04/29 09:13:24;;;;;;;2.97;2.73;;;12.50;73.30;;;;;;5096811;28;20394;-67
2022/04/29 09:15:59;;;;;;;2.70;2.43;;;12.70;76.80;;;;;;5096446;28;20366;-64
2022/04/29 09:18:34;;;;;;;3.10;2.80;;;12.50;67.60;;;;;;5096157;28;20366;-64
2022/04/29 09:21:05;;;;;;;4.20;3.90;;;12.40;62.10;;;;;;5096345;28;20427;-64
2022/04/29 09:23:31;;;;;;;5.43;3.23;;;12.40;59.80;;;;;;5096912;28;20422;-65
2022/04/29 09:26:01;;;;;;;3.40;3.20;;;12.70;67.60;;;;;;5095992;28;20753;-69
2022/04/29 09:28:27;;;;;;;5.50;3.73;;;13.10;61.10;;;;;;5096114;28;20382;-69
2022/04/29 09:30:56;;;;;;;3.40;3.07;;;13.50;58.90;;;;;;5095588;28;20378;-64
2022/04/29 09:33:23;;;;;;;3.50;3.20;;;13.90;58.50;;;;;;5096108;28;20424;-65
2022/04/29 09:35:50;;;;;;;3.40;2.77;;;14.40;56.60;;;;;;5077447;28;20912;-68
2022/04/29 09:41:01;;;;;;;4.80;3.90;;;14.80;44.10;;;;;;5095813;28;20438;-64
2022/04/29 09:43:42;;;;;;;3.50;3.20;;;14.10;29.80;;;;;;5095823;28;20930;-69
2022/04/29 09:46:22;;;;;;;4.03;3.43;;;13.80;24.90;;;;;;5095912;28;20888;-64
2022/04/29 09:48:56;;;;;;;7.03;3.80;;;13.80;25.80;;;;;;5110578;28;20397;-64
2022/04/29 09:51:48;;;;;;;4.27;3.60;;;14.10;20.10;;;;;;5104686;28;20447;-69
2022/04/29 09:54:19;;;;;;;5.60;3.67;;;14.90;20.90;;;;;;5116150;28;20502;-63
2022/04/29 09:57:00;;;;;;;4.23;3.80;;;15.80;26.80;;;;;;5097625;28;20446;-68
2022/04/29 09:59:28;;;;;;;6.47;3.40;;;16.40;22.30;;;;;;5114648;28;20460;-69
2022/04/29 10:01:54;;;;;;;4.20;3.90;;;15.90;19.60;;;;;;5115764;28;20896;-64
2022/04/29 10:04:21;;;;;;;3.67;3.33;;;15.20;11.90;;;;;;5110834;28;20463;-69
2022/04/29 10:06:49;;;;;;;8.40;3.60;;;14.70;12.70;;;;;;5095542;28;20408;-69
2022/04/29 10:09:16;;;;;;;3.90;3.60;;;14.70;11.30;;;;;;5094469;28;20396;-69
2022/04/29 10:11:44;;;;;;;6.37;3.90;;;14.40;6.20;;;;;;5110461;28;20419;-64
2022/04/29 10:14:14;;;;;;;5.67;3.60;;;14.00;4.80;;;;;;5095196;28;20456;-69
2022/04/29 10:16:44;;;;;;;6.07;3.20;;;14.60;10.60;;;;;;5095052;28;20418;-68
2022/04/29 10:22:00;;;;;;;4.93;3.80;;;16.00;8.40;;;;;;5094948;28;20469;-69
2022/04/29 10:24:28;;;;;;;6.53;4.20;;;16.70;2.10;;;;;;5095222;28;20446;-64
2022/04/29 10:26:55;;;;;;;4.60;3.60;;;17.00;1.70;;;;;;5095100;28;20740;-64
2022/04/29 10:29:20;;;;;;;10.20;3.60;;;17.20;1.30;;;;;;5094044;28;20753;-70
2022/04/29 10:32:09;;;;;;;5.30;4.90;;;17.40;1.00;;;;;;5094913;28;20423;-66
2022/04/29 10:34:35;;;;;;;3.23;2.80;;;16.60;1.00;;;;;;5094493;28;20166;-69
2022/04/29 10:37:02;;;;;;;3.57;3.27;;;16.10;1.00;;;;;;5095149;28;20982;-69
2022/04/29 10:39:27;;;;;;;8.83;3.67;;;15.70;1.00;;;;;;5075737;28;20937;-70
2022/04/29 10:42:01;;;;;;;4.80;3.17;;;15.40;1.00;;;;;;5094695;28;20494;-66
2022/04/29 10:44:27;;;;;;;4.47;3.90;;;15.40;1.00;;;;;;5076323;28;20197;-64
2022/04/29 10:46:53;;;;;;;4.13;3.37;;;15.80;1.00;;;;;;5102593;28;20926;-65
2022/04/29 10:49:20;;;;;;;3.47;3.23;;;16.30;1.00;;;;;;5114193;28;20887;-65
2022/04/29 10:51:49;;;;;;;9.60;3.60;;;17.30;1.00;;;;;;5114862;28;20181;-68
2022/04/29 10:54:15;;;;;;;3.70;2.97;;;17.70;1.00;;;;;;5114542;28;20948;-65
2022/04/29 10:56:41;;;;;;;3.80;3.40;;;17.70;1.00;;;;;;5113718;28;20407;-68
2022/04/29 10:59:11;;;;;;;6.93;3.03;;;17.60;1.00;;;;;;5113983;28;20952;-64
2022/04/29 11:01:38;;;;;;;5.10;3.43;;;17.40;1.00;;;;;;5098761;28;20182;-70
2022/04/29 11:04:24;;;;;;;3.87;3.50;;;17.10;1.00;;;;;;5094153;28;20497;-65
2022/04/29 11:06:51;;;;;;;3.73;3.37;;;16.80;1.00;;;;;;5109671;28;20502;-70
2022/04/29 11:09:30;;;;;;;3.43;3.23;;;16.90;1.00;;;;;;5093413;28;20438;-65
2022/04/29 11:11:56;;;;;;;4.10;3.70;;;17.70;1.00;;;;;;5109275;28;20431;-65
2022/04/29 11:14:22;;;;;;;4.83;3.43;;;18.40;1.00;;;;;;5098784;28;20446;-70
2022/04/29 11:16:56;;;;;;;3.47;3.27;;;19.10;1.00;;;;;;5114572;28;20423;-65
2022/04/29 11:19:23;;;;;;;4.57;3.10;;;19.80;1.00;;;;;;5113142;28;20261;-70
2022/04/29 11:24:49;;;;;;;4.10;3.80;;;18.20;1.00;;;;;;5114491;28;20394;-70
2022/04/29 11:27:25;;;;;;;4.83;4.30;;;18.10;1.00;;;;;;5103031;28;20407;-64
2022/04/29 11:29:53;;;;;;;4.40;4.00;;;18.10;1.00;;;;;;5092779;28;20392;-64
2022/04/29 11:32:25;;;;;;;5.27;4.00;;;17.60;1.00;;;;;;5093734;28;20437;-65
2022/04/29 11:34:56;;;;;;;4.40;3.87;;;17.30;1.00;;;;;;5093822;28;20403;-65
2022/04/29 11:37:30;;;;;;;7.30;4.63;;;17.50;1.00;;;;;;5093901;28;20399;-70
2022/04/29 11:39:56;;;;;;;6.20;4.00;;;17.20;1.00;;;;;;5092907;28;20466;-70
2022/04/29 11:42:22;;;;;;;4.77;4.30;;;17.00;1.00;;;;;;5092102;28;20429;-70
2022/04/29 11:44:51;;;;;;;8.60;4.80;;;16.60;1.00;;;;;;5093638;28;20403;-70
2022/04/29 11:47:23;;;;;;;4.33;3.93;;;16.30;1.00;;;;;;5093216;28;20400;-70
2022/04/29 11:49:49;;;;;;;4.40;3.97;;;16.80;1.00;;;;;;5092838;28;20486;-70
2022/04/29 11:52:25;;;;;;;7.80;4.97;;;17.10;1.00;;;;;;5093626;28;20446;-64
2022/04/29 11:54:59;;;;;;;3.97;3.67;;;17.80;1.00;;;;;;5094271;28;20169;-70
2022/04/29 11:57:30;;;;;;;9.63;4.13;;;18.50;1.00;;;;;;5109180;28;20426;-64
2022/04/29 11:59:56;;;;;;;4.40;3.87;;;18.20;1.00;;;;;;5092683;28;20399;-64
2022/04/29 12:02:24;;;;;;;7.47;4.37;;;18.00;1.00;;;;;;5093326;28;20412;-69
2022/04/29 12:04:57;;;;;;;6.40;4.60;;;18.20;1.00;;;;;;5092926;28;20404;-64
2022/04/29 12:07:24;;;;;;;3.47;3.20;;;18.00;1.00;;;;;;5093463;28;20419;-69
2022/04/29 12:09:51;;;;;;;6.43;3.93;;;18.70;1.00;;;;;;5106127;28;20418;-71
2022/04/29 12:12:26;;;;;;;7.60;3.97;;;19.70;1.00;;;;;;5113675;28;20419;-64
2022/04/29 12:14:54;;;;;;;4.27;3.87;;;20.60;1.00;;;;;;5112228;28;20402;-69
2022/04/29 12:17:32;;;;;;;3.83;3.47;;;20.00;1.00;;;;;;5112860;28;20441;-70
2022/04/29 12:19:59;;;;;;;3.97;3.70;;;19.30;1.00;;;;;;5112478;28;20825;-64
2022/04/29 12:22:33;;;;;;;6.47;3.40;;;19.00;1.00;;;;;;5113293;28;20796;-64
2022/04/29 12:25:27;;;;;;;4.10;3.80;;;18.70;1.00;;;;;;5113473;28;20915;-65
2022/04/29 12:28:14;;;;;;;7.53;6.80;;;18.30;1.00;;;;;;5113935;28;20395;-70
2022/04/29 12:37:00;;;;;;;6.00;4.40;;;19.20;1.00;;;;;;5117111;28;20763;-65
2022/04/29 12:39:40;;;;;;;7.63;4.20;;;19.40;1.00;;;;;;5116707;28;20443;-66
2022/04/29 12:42:11;;;;;;;4.13;3.70;;;19.40;1.00;;;;;;5099077;28;20436;-70
2022/04/29 12:47:46;;;;;;;5.23;4.00;;;20.00;1.00;;;;;;5117535;28;20478;-64
2022/04/29 12:50:41;;;;;;;4.73;4.33;;;20.00;1.00;;;;;;5097755;28;20463;-71
2022/04/29 12:53:17;;;;;;;5.37;4.90;;;19.60;1.00;;;;;;5115299;28;20954;-70
2022/04/29 12:55:43;;;;;;;6.03;3.60;;;18.80;1.00;;;;;;5117331;28;20447;-71
2022/04/29 12:58:12;;;;;;;4.00;3.67;;;18.60;1.00;;;;;;5098971;28;20434;-71
2022/04/29 13:00:41;;;;;;;8.03;3.60;;;18.60;1.00;;;;;;5116238;28;20617;-71
2022/04/29 13:03:17;;;;;;;7.03;3.43;;;18.80;1.00;;;;;;5116439;28;20856;-65
2022/04/29 13:05:43;;;;;;;5.20;3.67;;;19.30;1.00;;;;;;5116620;28;20496;-70
2022/04/29 13:08:09;;;;;;;4.43;3.23;;;19.40;1.00;;;;;;5116402;28;20471;-70
2022/04/29 13:10:45;;;;;;;4.03;3.50;;;19.40;1.00;;;;;;5115787;28;20406;-70
2022/04/29 13:13:11;;;;;;;4.50;3.90;;;19.10;1.00;;;;;;5116450;28;20418;-64
2022/04/29 13:15:41;;;;;;;10.37;3.57;;;18.60;1.00;;;;;;5116661;28;20998;-69
2022/04/29 13:18:08;;;;;;;3.23;3.03;;;19.00;1.00;;;;;;5116931;28;20725;-64
2022/04/29 13:20:34;;;;;;;3.63;3.33;;;19.30;1.00;;;;;;5115788;28;20403;-69
2022/04/29 13:23:00;;;;;;;3.80;2.80;;;19.10;1.00;;;;;;5116131;28;20471;-70
2022/04/29 13:25:27;;;;;;;3.77;3.37;;;19.30;1.00;;;;;;5116472;28;20395;-65
2022/04/29 13:27:53;;;;;;;3.27;3.07;;;19.50;1.00;;;;;;5117050;28;20517;-64
2022/04/29 13:30:20;;;;;;;8.53;3.50;;;19.10;1.00;;;;;;5115652;28;20394;-69